createdAt,value
2022-12-18T00:01:21.358Z,1.70
2022-12-18T00:03:48.252Z,1.43
2022-12-18T00:06:14.968Z,1.50
2022-12-18T00:08:41.783Z,1.67
2022-12-18T00:11:09.312Z,1.60
2022-12-18T00:13:36.485Z,1.90
2022-12-18T00:16:22.735Z,1.80
2022-12-18T00:18:50.422Z,1.38
2022-12-18T00:21:16.823Z,1.48
2022-12-18T00:23:44.327Z,1.30
2022-12-18T00:26:12.093Z,1.52
2022-12-18T00:28:38.617Z,1.23
2022-12-18T00:31:08.143Z,1.45
2022-12-18T00:33:36.003Z,0.98
2022-12-18T00:36:08.209Z,1.30
2022-12-18T00:38:35.596Z,1.52
2022-12-18T00:41:02.586Z,1.70
2022-12-18T00:43:28.967Z,1.20
2022-12-18T00:45:55.584Z,2.10
2022-12-18T00:48:22.279Z,1.45
2022-12-18T00:50:50.028Z,1.10
2022-12-18T00:53:17.013Z,1.13
2022-12-18T00:55:43.756Z,1.42
2022-12-18T00:58:11.193Z,2.33
2022-12-18T01:00:37.669Z,1.98
2022-12-18T01:03:04.687Z,2.28
2022-12-18T01:05:31.357Z,1.20
2022-12-18T01:07:57.977Z,1.55
2022-12-18T01:10:25.163Z,1.52
2022-12-18T01:12:52.189Z,1.77
2022-12-18T01:15:19.185Z,1.20
2022-12-18T01:17:45.630Z,1.80
2022-12-18T01:20:12.851Z,1.15
2022-12-18T01:22:39.552Z,1.52
2022-12-18T01:25:06.376Z,1.63
2022-12-18T01:27:34.312Z,1.60
2022-12-18T01:30:00.683Z,1.23
2022-12-18T01:32:27.207Z,1.50
2022-12-18T01:34:53.601Z,1.30
2022-12-18T01:37:19.987Z,0.57
2022-12-18T01:39:46.479Z,1.58
2022-12-18T01:42:14.355Z,1.50
2022-12-18T01:44:52.799Z,1.58
2022-12-18T01:47:21.894Z,1.10
2022-12-18T01:49:48.489Z,0.80
2022-12-18T01:52:15.116Z,0.80
2022-12-18T01:54:41.651Z,0.93
2022-12-18T01:57:08.205Z,0.70
2022-12-18T01:59:34.753Z,1.10
2022-12-18T02:02:02.384Z,1.20
2022-12-18T02:04:30.053Z,0.90
2022-12-18T02:07:01.117Z,0.80
2022-12-18T02:09:32.402Z,0.75
2022-12-18T02:12:14.278Z,1.13
2022-12-18T02:14:46.674Z,0.65
2022-12-18T02:17:21.152Z,0.82
2022-12-18T02:20:06.077Z,2.70
2022-12-18T02:22:35.250Z,3.30
2022-12-18T02:25:04.649Z,4.35
2022-12-18T02:27:33.259Z,2.92
2022-12-18T02:30:02.547Z,2.45
2022-12-18T02:32:34.817Z,2.60
2022-12-18T02:35:05.566Z,3.42
2022-12-18T02:37:32.750Z,3.25
2022-12-18T02:39:59.986Z,2.50
2022-12-18T02:42:28.876Z,2.67
2022-12-18T02:44:56.417Z,3.90
2022-12-18T02:47:23.714Z,2.55
2022-12-18T02:49:58.647Z,2.90
2022-12-18T02:52:28.074Z,3.00
2022-12-18T02:55:04.479Z,3.03
2022-12-18T02:57:37.113Z,2.47
2022-12-18T03:00:07.270Z,1.35
2022-12-18T03:02:47.450Z,4.43
2022-12-18T03:05:30.373Z,2.60
2022-12-18T03:08:06.128Z,3.75
2022-12-18T03:10:36.403Z,3.43
2022-12-18T03:13:24.537Z,3.80
2022-12-18T03:15:53.966Z,3.60
2022-12-18T03:18:25.995Z,5.80
2022-12-18T03:20:54.076Z,3.03
2022-12-18T03:23:37.710Z,3.33
2022-12-18T03:26:07.720Z,3.50
2022-12-18T03:28:36.585Z,3.70
2022-12-18T03:31:03.675Z,4.22
2022-12-18T03:33:33.046Z,4.55
2022-12-18T03:35:59.548Z,5.77
2022-12-18T03:38:25.927Z,4.72
2022-12-18T03:41:10.569Z,4.20
2022-12-18T03:43:56.002Z,5.50
2022-12-18T03:46:25.371Z,3.90
2022-12-18T03:49:01.268Z,7.73
2022-12-18T03:51:45.481Z,4.43
2022-12-18T03:54:12.925Z,6.00
2022-12-18T03:56:46.589Z,5.00
2022-12-18T03:59:16.116Z,7.18
2022-12-18T04:01:48.447Z,4.97
2022-12-18T04:04:17.625Z,5.25
2022-12-18T04:06:46.479Z,5.55
2022-12-18T04:09:13.703Z,4.28
2022-12-18T04:11:42.122Z,6.15
2022-12-18T04:14:11.858Z,6.53
2022-12-18T04:16:41.017Z,5.57
2022-12-18T04:19:07.573Z,4.97
2022-12-18T04:21:34.102Z,6.43
2022-12-18T04:24:00.633Z,4.72
2022-12-18T04:26:27.216Z,6.80
2022-12-18T04:28:53.707Z,6.55
2022-12-18T04:31:20.222Z,5.70
2022-12-18T04:33:46.801Z,4.78
2022-12-18T04:36:13.333Z,6.97
2022-12-18T04:38:39.847Z,4.87
2022-12-18T04:41:06.423Z,6.88
2022-12-18T04:43:33.112Z,7.03
2022-12-18T04:46:04.557Z,4.28
2022-12-18T04:48:31.355Z,6.50
2022-12-18T04:50:57.916Z,4.27
2022-12-18T04:53:24.602Z,6.70
2022-12-18T04:55:51.213Z,6.55
2022-12-18T04:58:17.780Z,5.95
2022-12-18T05:00:44.343Z,6.18
2022-12-18T05:03:10.971Z,6.63
2022-12-18T05:05:37.523Z,5.93
2022-12-18T05:08:04.249Z,7.57
2022-12-18T05:10:37.743Z,6.10
2022-12-18T05:13:05.284Z,4.32
2022-12-18T05:15:33.901Z,6.60
2022-12-18T05:18:01.266Z,5.57
2022-12-18T05:20:28.117Z,5.72
2022-12-18T05:22:55.436Z,6.40
2022-12-18T05:25:22.614Z,7.28
2022-12-18T05:27:49.543Z,5.57
2022-12-18T05:30:17.135Z,6.97
2022-12-18T05:32:44.019Z,5.78
2022-12-18T05:35:12.197Z,4.70
2022-12-18T05:37:42.898Z,4.40
2022-12-18T05:40:10.688Z,5.30
2022-12-18T05:42:37.321Z,5.97
2022-12-18T05:45:05.159Z,5.80
2022-12-18T05:47:31.691Z,4.90
2022-12-18T05:49:58.438Z,6.93
2022-12-18T05:52:25.037Z,8.43
2022-12-18T05:54:51.601Z,7.13
2022-12-18T05:57:18.108Z,7.00
2022-12-18T05:59:44.731Z,6.38
2022-12-18T06:02:11.553Z,5.55
2022-12-18T06:04:38.141Z,4.17
2022-12-18T06:07:04.762Z,6.40
2022-12-18T06:09:31.248Z,5.88
2022-12-18T06:11:58.122Z,6.63
2022-12-18T06:14:24.702Z,6.60
2022-12-18T06:16:52.308Z,6.00
2022-12-18T06:19:18.902Z,5.50
2022-12-18T06:21:45.576Z,6.72
2022-12-18T06:24:12.082Z,6.72
2022-12-18T06:26:39.819Z,5.97
2022-12-18T06:29:06.936Z,6.27
2022-12-18T06:31:33.737Z,5.07
2022-12-18T06:34:02.903Z,5.90
2022-12-18T06:36:31.248Z,4.10
2022-12-18T06:38:58.213Z,6.13
2022-12-18T06:41:24.775Z,4.87
2022-12-18T06:43:53.556Z,6.93
2022-12-18T06:46:22.210Z,6.03
2022-12-18T06:48:50.267Z,6.20
2022-12-18T06:51:22.061Z,5.75
2022-12-18T06:53:48.540Z,5.87
2022-12-18T06:56:15.369Z,5.45
2022-12-18T06:58:42.414Z,6.30
2022-12-18T07:01:11.922Z,6.63
2022-12-18T07:03:44.526Z,7.25
2022-12-18T07:06:17.300Z,5.77
2022-12-18T07:08:44.260Z,7.97
2022-12-18T07:11:10.874Z,3.78
2022-12-18T07:13:37.866Z,5.00
2022-12-18T07:16:19.645Z,5.88
2022-12-18T07:18:49.341Z,4.43
2022-12-18T07:21:20.073Z,8.02
2022-12-18T07:23:46.599Z,7.45
2022-12-18T07:26:14.513Z,7.43
2022-12-18T07:28:42.260Z,8.30
2022-12-18T07:31:12.133Z,6.90
2022-12-18T07:33:39.298Z,7.18
2022-12-18T07:36:08.786Z,7.72
2022-12-18T07:38:36.634Z,6.22
2022-12-18T07:41:06.526Z,5.65
2022-12-18T07:43:34.169Z,6.70
2022-12-18T07:46:01.000Z,5.20
2022-12-18T07:48:28.884Z,7.43
2022-12-18T07:51:02.649Z,3.72
2022-12-18T07:53:29.443Z,5.60
2022-12-18T07:56:26.659Z,7.17
2022-12-18T07:58:52.343Z,6.45
2022-12-18T08:01:19.063Z,7.20
2022-12-18T08:03:45.657Z,5.18
2022-12-18T08:06:12.134Z,5.05
2022-12-18T08:08:38.747Z,4.87
2022-12-18T08:11:05.499Z,5.45
2022-12-18T08:13:32.499Z,7.95
2022-12-18T08:16:07.713Z,5.68
2022-12-18T08:18:36.212Z,7.30
2022-12-18T08:21:10.775Z,6.17
2022-12-18T08:23:42.315Z,7.00
2022-12-18T08:26:10.676Z,6.95
2022-12-18T08:28:37.184Z,6.00
2022-12-18T08:31:04.225Z,6.45
2022-12-18T08:33:31.158Z,6.70
2022-12-18T08:35:59.706Z,4.43
2022-12-18T08:38:26.291Z,7.07
2022-12-18T08:41:07.431Z,3.95
2022-12-18T08:43:34.375Z,6.85
2022-12-18T08:46:00.973Z,7.03
2022-12-18T08:48:27.555Z,5.20
2022-12-18T08:51:00.922Z,7.10
2022-12-18T08:53:31.496Z,6.10
2022-12-18T08:56:02.103Z,6.43
2022-12-18T08:58:28.594Z,6.13
2022-12-18T09:00:55.254Z,6.38
2022-12-18T09:03:22.435Z,8.15
2022-12-18T09:05:49.450Z,5.70
2022-12-18T09:08:15.985Z,5.68
2022-12-18T09:10:47.222Z,5.80
2022-12-18T09:13:14.428Z,5.88
2022-12-18T09:15:48.943Z,4.90
2022-12-18T09:18:17.476Z,6.18
2022-12-18T09:20:44.648Z,5.38
2022-12-18T09:23:11.988Z,5.90
2022-12-18T09:25:39.348Z,7.13
2022-12-18T09:28:17.975Z,4.13
2022-12-18T09:30:47.749Z,6.47
2022-12-18T09:33:14.651Z,7.22
2022-12-18T09:35:42.582Z,6.57
2022-12-18T09:38:13.115Z,6.05
2022-12-18T09:40:49.326Z,5.68
2022-12-18T09:43:23.924Z,7.43
2022-12-18T09:45:54.965Z,3.92
2022-12-18T09:48:27.196Z,6.77
2022-12-18T09:50:59.594Z,6.13
2022-12-18T09:53:31.257Z,6.22
2022-12-18T09:55:58.535Z,5.80
2022-12-18T09:58:35.970Z,6.85
2022-12-18T10:01:02.996Z,5.40
2022-12-18T10:03:29.522Z,4.75
2022-12-18T10:06:12.785Z,5.63
2022-12-18T10:08:51.569Z,7.20
2022-12-18T10:11:37.112Z,5.75
2022-12-18T10:14:30.577Z,4.20
2022-12-18T10:17:12.383Z,6.15
2022-12-18T10:19:51.047Z,4.55
2022-12-18T10:22:24.832Z,5.30
2022-12-18T10:25:21.045Z,4.93
2022-12-18T10:27:48.380Z,5.00
2022-12-18T10:30:19.333Z,6.50
2022-12-18T10:32:45.914Z,4.88
2022-12-18T10:35:27.713Z,5.63
2022-12-18T10:38:20.367Z,5.75
2022-12-18T10:40:52.833Z,5.60
2022-12-18T10:43:37.206Z,3.83
2022-12-18T10:46:10.325Z,4.88
2022-12-18T10:48:40.365Z,4.90
2022-12-18T10:51:12.248Z,7.00
2022-12-18T10:53:43.267Z,5.17
2022-12-18T10:56:10.329Z,6.32
2022-12-18T10:58:39.036Z,5.88
2022-12-18T11:01:14.613Z,5.20
2022-12-18T11:03:47.076Z,6.95
2022-12-18T11:06:19.942Z,6.50
2022-12-18T11:09:06.581Z,6.35
2022-12-18T11:11:39.735Z,6.43
2022-12-18T11:14:14.701Z,5.45
2022-12-18T11:17:03.117Z,5.70
2022-12-18T11:19:41.930Z,6.10
2022-12-18T11:22:29.201Z,5.95
2022-12-18T11:27:53.258Z,5.88
2022-12-18T11:30:29.902Z,5.80
2022-12-18T11:33:23.265Z,5.13
2022-12-18T11:36:03.797Z,5.78
2022-12-18T11:38:30.438Z,4.85
2022-12-18T11:41:21.547Z,4.47
2022-12-18T11:43:57.717Z,5.78
2022-12-18T11:46:31.934Z,4.80
2022-12-18T11:49:14.986Z,4.30
2022-12-18T11:51:55.657Z,6.32
2022-12-18T11:54:22.304Z,6.43
2022-12-18T11:56:59.559Z,5.15
2022-12-18T11:59:34.351Z,5.83
2022-12-18T12:02:15.322Z,5.57
2022-12-18T12:04:51.406Z,6.15
2022-12-18T12:07:17.884Z,3.45
2022-12-18T12:10:01.507Z,5.47
2022-12-18T12:12:36.687Z,5.00
2022-12-18T12:15:41.939Z,5.03
2022-12-18T12:18:20.879Z,5.82
2022-12-18T12:21:01.886Z,4.78
2022-12-18T12:23:50.178Z,4.43
2022-12-18T12:26:43.686Z,4.37
2022-12-18T12:29:41.627Z,4.55
2022-12-18T12:32:13.244Z,4.95
2022-12-18T12:34:47.462Z,5.03
2022-12-18T12:37:20.463Z,5.65
2022-12-18T12:39:49.007Z,5.57
2022-12-18T12:42:26.708Z,5.45
2022-12-18T12:44:58.102Z,6.68
2022-12-18T12:47:31.500Z,5.43
2022-12-18T12:50:01.313Z,5.50
2022-12-18T12:52:34.574Z,5.20
2022-12-18T12:55:08.049Z,5.38
2022-12-18T12:57:46.027Z,5.15
2022-12-18T13:00:18.890Z,4.85
2022-12-18T13:03:11.324Z,5.72
2022-12-18T13:05:54.071Z,5.27
2022-12-18T13:08:27.492Z,5.45
2022-12-18T13:10:59.296Z,4.57
2022-12-18T13:13:26.589Z,5.68
2022-12-18T13:16:08.651Z,5.30
2022-12-18T13:18:36.032Z,5.47
2022-12-18T13:21:11.829Z,5.82
2022-12-18T13:23:40.487Z,4.53
2022-12-18T13:26:07.477Z,4.90
2022-12-18T13:28:34.028Z,4.82
2022-12-18T13:31:01.938Z,5.47
2022-12-18T13:34:16.429Z,3.78
2022-12-18T13:36:33.212Z,5.30
2022-12-18T13:39:26.716Z,4.80
2022-12-18T13:42:05.880Z,5.40
2022-12-18T13:44:40.936Z,5.30
2022-12-18T13:47:37.287Z,5.55
2022-12-18T13:50:25.196Z,3.60
2022-12-18T13:52:53.476Z,4.13
2022-12-18T13:55:21.710Z,4.38
2022-12-18T13:57:48.323Z,4.50
2022-12-18T14:00:30.258Z,4.07
2022-12-18T14:02:58.740Z,4.97
2022-12-18T14:05:28.375Z,10.18
2022-12-18T14:07:56.057Z,4.40
2022-12-18T14:10:45.991Z,4.90
2022-12-18T14:13:12.294Z,3.83
2022-12-18T14:15:49.001Z,4.97
2022-12-18T14:18:15.446Z,5.03
2022-12-18T14:20:50.665Z,3.75
2022-12-18T14:23:29.416Z,4.87
2022-12-18T14:25:58.567Z,3.72
2022-12-18T14:28:27.815Z,4.70
2022-12-18T14:30:55.282Z,4.10
2022-12-18T14:33:23.970Z,4.57
2022-12-18T14:35:56.475Z,3.97
2022-12-18T14:38:40.966Z,4.30
2022-12-18T14:41:16.173Z,3.33
2022-12-18T14:43:48.261Z,3.13
2022-12-18T14:46:33.870Z,2.72
2022-12-18T14:49:04.290Z,3.30
2022-12-18T14:51:33.203Z,4.00
2022-12-18T14:54:05.867Z,4.28
2022-12-18T14:56:35.272Z,2.45
2022-12-18T14:59:14.602Z,3.65
2022-12-18T15:02:02.140Z,3.80
2022-12-18T15:04:39.029Z,3.17
2022-12-18T15:07:13.607Z,3.15
2022-12-18T15:09:42.623Z,3.53
2022-12-18T15:12:36.499Z,4.30
2022-12-18T15:15:06.491Z,5.17
2022-12-18T15:17:33.049Z,4.55
2022-12-18T15:20:03.275Z,3.78
2022-12-18T15:22:34.921Z,4.68
2022-12-18T15:25:02.563Z,3.13
2022-12-18T15:27:33.916Z,3.63
2022-12-18T15:30:18.563Z,3.67
2022-12-18T15:32:46.016Z,4.43
2022-12-18T15:35:23.102Z,3.63
2022-12-18T15:37:51.247Z,4.57
2022-12-18T15:40:23.260Z,3.00
2022-12-18T15:42:52.742Z,4.47
2022-12-18T15:45:19.282Z,3.42
2022-12-18T15:47:46.468Z,3.00
2022-12-18T15:50:13.160Z,3.58
2022-12-18T15:52:45.084Z,2.80
2022-12-18T15:55:13.967Z,3.58
2022-12-18T15:57:40.558Z,2.15
2022-12-18T16:00:12.401Z,3.05
2022-12-18T16:02:38.976Z,2.40
2022-12-18T16:05:15.421Z,2.60
2022-12-18T16:07:41.966Z,2.85
2022-12-18T16:10:08.788Z,5.50
2022-12-18T16:12:35.492Z,1.58
2022-12-18T16:15:05.705Z,3.65
2022-12-18T16:17:32.505Z,2.70
2022-12-18T16:19:59.813Z,3.83
2022-12-18T16:22:29.392Z,3.13
2022-12-18T16:24:57.519Z,1.77
2022-12-18T16:27:25.493Z,3.42
2022-12-18T16:29:52.002Z,4.03
2022-12-18T16:32:23.402Z,4.05
2022-12-18T16:34:51.030Z,3.03
2022-12-18T16:37:17.769Z,3.92
2022-12-18T16:39:45.189Z,3.42
2022-12-18T16:42:11.703Z,2.87
2022-12-18T16:44:38.178Z,4.00
2022-12-18T16:47:05.029Z,4.22
2022-12-18T16:49:33.805Z,3.63
2022-12-18T16:52:03.657Z,3.40
2022-12-18T16:54:30.134Z,5.20
2022-12-18T16:56:57.645Z,5.15
2022-12-18T16:59:24.252Z,4.47
2022-12-18T17:01:50.965Z,5.03
2022-12-18T17:04:17.927Z,4.18
2022-12-18T17:06:45.925Z,7.10
2022-12-18T17:09:14.378Z,5.25
2022-12-18T17:11:41.974Z,3.88
2022-12-18T17:14:13.048Z,3.40
2022-12-18T17:16:40.124Z,4.25
2022-12-18T17:19:13.613Z,5.53
2022-12-18T17:21:49.047Z,6.30
2022-12-18T17:24:16.091Z,4.20
2022-12-18T17:26:44.139Z,4.38
2022-12-18T17:29:14.374Z,3.95
2022-12-18T17:31:41.130Z,3.40
2022-12-18T17:34:09.547Z,3.70
2022-12-18T17:36:36.102Z,2.92
2022-12-18T17:39:04.860Z,4.30
2022-12-18T17:41:32.138Z,3.80
2022-12-18T17:44:01.131Z,3.47
2022-12-18T17:46:31.020Z,3.83
2022-12-18T17:48:58.603Z,11.50
2022-12-18T17:51:25.876Z,4.15
2022-12-18T17:53:52.772Z,3.05
2022-12-18T17:56:22.244Z,3.80
2022-12-18T17:58:49.458Z,3.28
2022-12-18T18:01:19.466Z,1.92
2022-12-18T18:03:47.812Z,3.28
2022-12-18T18:06:18.397Z,2.50
2022-12-18T18:08:45.001Z,1.90
2022-12-18T18:11:14.905Z,2.20
2022-12-18T18:13:46.644Z,4.38
2022-12-18T18:16:13.906Z,2.10
2022-12-18T18:18:40.469Z,2.20
2022-12-18T18:21:08.577Z,2.67
2022-12-18T18:23:36.071Z,2.90
2022-12-18T18:26:07.305Z,3.35
2022-12-18T18:28:35.088Z,2.65
2022-12-18T18:31:11.151Z,3.22
2022-12-18T18:36:23.001Z,1.98
2022-12-18T18:38:50.766Z,1.60
2022-12-18T18:41:17.331Z,2.45
2022-12-18T18:43:45.303Z,2.75
2022-12-18T18:46:14.142Z,6.87
2022-12-18T18:48:41.638Z,2.58
2022-12-18T18:51:20.139Z,2.40
2022-12-18T18:53:50.686Z,2.63
2022-12-18T18:56:45.454Z,2.90
2022-12-18T18:59:06.847Z,1.80
2022-12-18T19:01:33.563Z,1.63
2022-12-18T19:04:01.023Z,3.35
2022-12-18T19:06:28.920Z,1.50
2022-12-18T19:08:57.366Z,2.72
2022-12-18T19:11:25.238Z,3.03
2022-12-18T19:13:51.789Z,2.60
2022-12-18T19:16:18.892Z,3.47
2022-12-18T19:18:45.740Z,1.75
2022-12-18T19:21:12.383Z,2.30
2022-12-18T19:23:38.960Z,3.60
2022-12-18T19:28:54.063Z,3.08
2022-12-18T19:31:25.428Z,3.13
2022-12-18T19:33:53.664Z,3.47
2022-12-18T19:36:27.243Z,3.60
2022-12-18T19:38:55.833Z,3.60
2022-12-18T19:41:23.915Z,3.08
2022-12-18T19:43:52.703Z,3.85
2022-12-18T19:46:21.954Z,1.85
2022-12-18T19:48:49.234Z,3.40
2022-12-18T19:51:18.450Z,3.72
2022-12-18T19:53:45.558Z,3.85
2022-12-18T19:56:13.298Z,3.83
2022-12-18T19:58:41.357Z,4.38
2022-12-18T20:01:12.855Z,4.90
2022-12-18T20:03:41.385Z,4.07
2022-12-18T20:06:13.211Z,3.67
2022-12-18T20:08:40.306Z,3.30
2022-12-18T20:11:07.529Z,2.88
2022-12-18T20:13:34.516Z,3.93
2022-12-18T20:16:01.098Z,2.70
2022-12-18T20:18:27.707Z,3.90
2022-12-18T20:20:54.472Z,4.72
2022-12-18T20:23:23.154Z,2.92
2022-12-18T20:25:52.885Z,2.93
2022-12-18T20:28:19.959Z,2.60
2022-12-18T20:30:46.471Z,4.45
2022-12-18T20:33:12.977Z,3.30
2022-12-18T20:35:39.618Z,5.88
2022-12-18T20:38:07.426Z,5.10
2022-12-18T20:40:34.653Z,4.28
2022-12-18T20:43:01.254Z,6.85
2022-12-18T20:45:30.782Z,4.10
2022-12-18T20:47:57.290Z,3.58
2022-12-18T20:50:23.927Z,4.80
2022-12-18T20:52:50.509Z,1.80
2022-12-18T20:55:17.303Z,5.18
2022-12-18T20:57:44.014Z,5.00
2022-12-18T21:00:11.743Z,2.20
2022-12-18T21:02:40.032Z,5.37
2022-12-18T21:05:07.126Z,3.67
2022-12-18T21:07:33.750Z,2.67
2022-12-18T21:10:00.249Z,2.35
2022-12-18T21:12:26.880Z,3.17
2022-12-18T21:14:53.463Z,3.87
2022-12-18T21:17:19.966Z,3.03
2022-12-18T21:19:47.276Z,4.57
2022-12-18T21:22:14.582Z,3.85
2022-12-18T21:24:41.351Z,4.15
2022-12-18T21:27:08.380Z,2.73
2022-12-18T21:29:37.209Z,1.70
2022-12-18T21:32:04.849Z,4.05
2022-12-18T21:34:32.929Z,3.85
2022-12-18T21:37:00.764Z,3.50
2022-12-18T21:39:28.652Z,4.43
2022-12-18T21:41:56.034Z,3.90
2022-12-18T21:44:23.474Z,2.58
2022-12-18T21:46:55.825Z,2.70
2022-12-18T21:49:27.055Z,2.72
2022-12-18T21:51:56.512Z,3.53
2022-12-18T21:54:25.447Z,3.78
2022-12-18T21:57:06.432Z,3.05
2022-12-18T21:59:38.071Z,3.65
2022-12-18T22:02:18.361Z,3.67
2022-12-18T22:04:45.983Z,2.37
2022-12-18T22:07:14.253Z,2.58
2022-12-18T22:09:41.323Z,4.50
2022-12-18T22:12:08.715Z,2.80
2022-12-18T22:14:36.606Z,3.17
2022-12-18T22:17:03.220Z,3.73
2022-12-18T22:19:30.520Z,3.92
2022-12-18T22:21:57.090Z,2.20
2022-12-18T22:24:25.614Z,4.53
2022-12-18T22:26:53.525Z,3.08
2022-12-18T22:29:25.302Z,2.73
2022-12-18T22:31:51.910Z,3.20
2022-12-18T22:34:22.800Z,4.60
2022-12-18T22:36:50.535Z,4.18
2022-12-18T22:39:23.184Z,2.22
2022-12-18T22:41:50.505Z,1.27
2022-12-18T22:44:18.181Z,4.30
2022-12-18T22:46:52.209Z,3.60
2022-12-18T22:49:31.957Z,2.75
2022-12-18T22:52:00.490Z,2.38
2022-12-18T22:54:27.061Z,3.40
2022-12-18T22:56:53.606Z,2.70
2022-12-18T22:59:23.126Z,3.00
2022-12-18T23:01:51.421Z,3.60
2022-12-18T23:04:23.702Z,4.18
2022-12-18T23:06:52.586Z,3.50
2022-12-18T23:09:20.063Z,2.75
2022-12-18T23:11:48.019Z,3.28
2022-12-18T23:14:15.800Z,3.70
2022-12-18T23:16:42.609Z,2.88
2022-12-18T23:19:11.795Z,2.00
2022-12-18T23:21:38.603Z,3.55
2022-12-18T23:24:05.417Z,3.17
2022-12-18T23:26:32.112Z,1.83
2022-12-18T23:28:58.639Z,3.60
2022-12-18T23:31:31.057Z,3.07
2022-12-18T23:34:00.024Z,3.28
2022-12-18T23:36:27.389Z,2.20
2022-12-18T23:38:57.009Z,3.22
2022-12-18T23:41:26.232Z,3.60
2022-12-18T23:43:53.870Z,2.87
2022-12-18T23:46:32.176Z,3.30
2022-12-18T23:49:00.466Z,2.08
2022-12-18T23:51:27.702Z,2.03
2022-12-18T23:53:59.560Z,2.63
2022-12-18T23:56:27.575Z,3.37
2022-12-18T23:58:54.187Z,2.20
